Colgate, North Dakota
Current Conditions -  °F | °C
As of 4:35 AM on Saturday 22 Nov 2014 (Local Time) from KBAC Reporting Station
Clear Clear  
Wind Chill: 17°   Ceiling: Unl
Heat Index: 23°   Visibility: 10mi
Dew Point: 23°   Wind: 5mph
Humidity: 100%   Direction: 200°SSW
Pressure: 29.63"   Gusts: NA
Location:  47.1965°N, 97.7696°W
Report Text: KBAC 221035Z AUTO 20004KT 10SM CLR M05/M05 A2963 RMK AO2
Loading
Personal Weather Stations






























Interactive Weather Map New forecast layout! Learn more

10-Day Weather Forecast

Advertisements
Track Severe Weather on mobile